sensor_id;sensor_type;location;lat;lon;timestamp;P1;durP1;ratioP1;P2;durP2;ratioP2
16254;SDS011;8235;52.198;9.904;2022-12-29T00:00:03;2.20;;;1.30;;
16254;SDS011;8235;52.198;9.904;2022-12-29T00:02:30;1.57;;;1.00;;
16254;SDS011;8235;52.198;9.904;2022-12-29T00:04:57;1.37;;;1.17;;
16254;SDS011;8235;52.198;9.904;2022-12-29T00:07:23;0.60;;;0.60;;
16254;SDS011;8235;52.198;9.904;2022-12-29T00:09:49;1.53;;;1.10;;
16254;SDS011;8235;52.198;9.904;2022-12-29T00:12:16;2.77;;;1.00;;
16254;SDS011;8235;52.198;9.904;2022-12-29T00:14:44;2.03;;;1.17;;
16254;SDS011;8235;52.198;9.904;2022-12-29T00:17:28;1.50;;;1.00;;
16254;SDS011;8235;52.198;9.904;2022-12-29T00:19:54;1.10;;;0.90;;
16254;SDS011;8235;52.198;9.904;2022-12-29T00:22:38;1.10;;;1.00;;
16254;SDS011;8235;52.198;9.904;2022-12-29T00:25:22;0.80;;;0.73;;
16254;SDS011;8235;52.198;9.904;2022-12-29T00:28:07;1.77;;;1.10;;
16254;SDS011;8235;52.198;9.904;2022-12-29T00:30:54;1.93;;;1.30;;
16254;SDS011;8235;52.198;9.904;2022-12-29T00:33:42;1.07;;;0.77;;
16254;SDS011;8235;52.198;9.904;2022-12-29T00:36:27;1.23;;;1.00;;
16254;SDS011;8235;52.198;9.904;2022-12-29T00:38:57;1.97;;;1.10;;
16254;SDS011;8235;52.198;9.904;2022-12-29T00:41:44;1.10;;;1.00;;
16254;SDS011;8235;52.198;9.904;2022-12-29T00:44:28;0.87;;;0.77;;
16254;SDS011;8235;52.198;9.904;2022-12-29T00:46:55;2.50;;;0.93;;
16254;SDS011;8235;52.198;9.904;2022-12-29T00:49:22;2.27;;;1.10;;
16254;SDS011;8235;52.198;9.904;2022-12-29T00:51:58;1.30;;;0.80;;
16254;SDS011;8235;52.198;9.904;2022-12-29T00:54:26;2.30;;;0.90;;
16254;SDS011;8235;52.198;9.904;2022-12-29T00:56:53;1.33;;;1.13;;
16254;SDS011;8235;52.198;9.904;2022-12-29T00:59:20;1.30;;;0.90;;
16254;SDS011;8235;52.198;9.904;2022-12-29T01:01:48;1.20;;;0.90;;
16254;SDS011;8235;52.198;9.904;2022-12-29T01:04:17;1.63;;;0.90;;
16254;SDS011;8235;52.198;9.904;2022-12-29T01:06:44;0.80;;;0.73;;
16254;SDS011;8235;52.198;9.904;2022-12-29T01:09:11;1.60;;;0.80;;
16254;SDS011;8235;52.198;9.904;2022-12-29T01:11:55;1.00;;;0.63;;
16254;SDS011;8235;52.198;9.904;2022-12-29T01:14:22;1.43;;;0.80;;
16254;SDS011;8235;52.198;9.904;2022-12-29T01:16:50;1.40;;;0.80;;
16254;SDS011;8235;52.198;9.904;2022-12-29T01:19:18;1.00;;;0.70;;
16254;SDS011;8235;52.198;9.904;2022-12-29T01:21:45;1.17;;;0.83;;
16254;SDS011;8235;52.198;9.904;2022-12-29T01:24:12;1.20;;;0.90;;
16254;SDS011;8235;52.198;9.904;2022-12-29T01:26:39;1.90;;;1.03;;
16254;SDS011;8235;52.198;9.904;2022-12-29T01:29:05;1.87;;;0.90;;
16254;SDS011;8235;52.198;9.904;2022-12-29T01:31:32;1.27;;;0.73;;
16254;SDS011;8235;52.198;9.904;2022-12-29T01:33:59;0.90;;;0.80;;
16254;SDS011;8235;52.198;9.904;2022-12-29T01:36:27;0.80;;;0.80;;
16254;SDS011;8235;52.198;9.904;2022-12-29T01:38:53;1.23;;;1.00;;
16254;SDS011;8235;52.198;9.904;2022-12-29T01:41:19;1.20;;;0.97;;
16254;SDS011;8235;52.198;9.904;2022-12-29T01:43:47;2.27;;;1.10;;
16254;SDS011;8235;52.198;9.904;2022-12-29T01:46:23;1.20;;;0.97;;
16254;SDS011;8235;52.198;9.904;2022-12-29T01:48:53;2.93;;;0.83;;
16254;SDS011;8235;52.198;9.904;2022-12-29T01:51:24;1.57;;;0.80;;
16254;SDS011;8235;52.198;9.904;2022-12-29T01:53:55;1.37;;;0.70;;
16254;SDS011;8235;52.198;9.904;2022-12-29T01:56:26;0.83;;;0.80;;
16254;SDS011;8235;52.198;9.904;2022-12-29T01:58:54;4.73;;;1.20;;
16254;SDS011;8235;52.198;9.904;2022-12-29T02:01:26;1.53;;;0.80;;
16254;SDS011;8235;52.198;9.904;2022-12-29T02:03:52;1.00;;;0.90;;
16254;SDS011;8235;52.198;9.904;2022-12-29T02:06:21;0.77;;;0.57;;
16254;SDS011;8235;52.198;9.904;2022-12-29T02:08:52;1.10;;;0.80;;
16254;SDS011;8235;52.198;9.904;2022-12-29T02:11:21;0.90;;;0.73;;
16254;SDS011;8235;52.198;9.904;2022-12-29T02:13:49;0.80;;;0.70;;
16254;SDS011;8235;52.198;9.904;2022-12-29T02:16:21;0.87;;;0.60;;
16254;SDS011;8235;52.198;9.904;2022-12-29T02:19:05;1.03;;;0.60;;
16254;SDS011;8235;52.198;9.904;2022-12-29T02:24:44;0.90;;;0.67;;
16254;SDS011;8235;52.198;9.904;2022-12-29T02:30:57;0.80;;;0.50;;
16254;SDS011;8235;52.198;9.904;2022-12-29T02:33:34;2.00;;;0.60;;
16254;SDS011;8235;52.198;9.904;2022-12-29T02:36:15;1.03;;;0.67;;
16254;SDS011;8235;52.198;9.904;2022-12-29T02:38:49;0.53;;;0.53;;
16254;SDS011;8235;52.198;9.904;2022-12-29T02:41:23;0.60;;;0.60;;
16254;SDS011;8235;52.198;9.904;2022-12-29T02:43:56;0.70;;;0.70;;
16254;SDS011;8235;52.198;9.904;2022-12-29T02:46:33;0.90;;;0.60;;
16254;SDS011;8235;52.198;9.904;2022-12-29T02:49:04;0.80;;;0.70;;
16254;SDS011;8235;52.198;9.904;2022-12-29T02:51:36;1.40;;;0.60;;
16254;SDS011;8235;52.198;9.904;2022-12-29T02:54:10;1.00;;;0.60;;
16254;SDS011;8235;52.198;9.904;2022-12-29T02:56:59;1.17;;;0.60;;
16254;SDS011;8235;52.198;9.904;2022-12-29T02:59:25;0.60;;;0.60;;
16254;SDS011;8235;52.198;9.904;2022-12-29T03:01:59;0.90;;;0.67;;
16254;SDS011;8235;52.198;9.904;2022-12-29T03:04:49;2.33;;;0.70;;
16254;SDS011;8235;52.198;9.904;2022-12-29T03:07:27;1.00;;;0.77;;
16254;SDS011;8235;52.198;9.904;2022-12-29T03:10:04;0.90;;;0.60;;
16254;SDS011;8235;52.198;9.904;2022-12-29T03:12:41;0.83;;;0.80;;
16254;SDS011;8235;52.198;9.904;2022-12-29T03:15:33;0.70;;;0.70;;
16254;SDS011;8235;52.198;9.904;2022-12-29T03:18:24;0.83;;;0.80;;
16254;SDS011;8235;52.198;9.904;2022-12-29T03:20:57;1.40;;;1.30;;
16254;SDS011;8235;52.198;9.904;2022-12-29T03:23:28;2.40;;;0.83;;
16254;SDS011;8235;52.198;9.904;2022-12-29T03:25:57;1.43;;;0.70;;
16254;SDS011;8235;52.198;9.904;2022-12-29T03:28:28;0.70;;;0.70;;
16254;SDS011;8235;52.198;9.904;2022-12-29T03:30:59;1.20;;;0.90;;
16254;SDS011;8235;52.198;9.904;2022-12-29T03:33:28;1.07;;;0.60;;
16254;SDS011;8235;52.198;9.904;2022-12-29T03:35:57;1.40;;;0.83;;
16254;SDS011;8235;52.198;9.904;2022-12-29T03:38:27;2.47;;;1.37;;
16254;SDS011;8235;52.198;9.904;2022-12-29T03:41:05;2.00;;;1.33;;
16254;SDS011;8235;52.198;9.904;2022-12-29T03:43:35;2.00;;;0.80;;
16254;SDS011;8235;52.198;9.904;2022-12-29T03:46:01;0.80;;;0.60;;
16254;SDS011;8235;52.198;9.904;2022-12-29T03:48:29;0.43;;;0.43;;
16254;SDS011;8235;52.198;9.904;2022-12-29T03:50:57;1.23;;;0.70;;
16254;SDS011;8235;52.198;9.904;2022-12-29T03:53:24;1.07;;;0.80;;
16254;SDS011;8235;52.198;9.904;2022-12-29T03:55:51;1.23;;;0.80;;
16254;SDS011;8235;52.198;9.904;2022-12-29T03:58:17;1.37;;;1.00;;
16254;SDS011;8235;52.198;9.904;2022-12-29T04:00:44;0.60;;;0.60;;
16254;SDS011;8235;52.198;9.904;2022-12-29T04:03:10;0.80;;;0.57;;
16254;SDS011;8235;52.198;9.904;2022-12-29T04:05:38;1.47;;;0.70;;
16254;SDS011;8235;52.198;9.904;2022-12-29T04:08:04;0.63;;;0.60;;
16254;SDS011;8235;52.198;9.904;2022-12-29T04:10:31;0.93;;;0.70;;
16254;SDS011;8235;52.198;9.904;2022-12-29T04:12:57;0.77;;;0.60;;
16254;SDS011;8235;52.198;9.904;2022-12-29T04:15:24;2.20;;;0.67;;
16254;SDS011;8235;52.198;9.904;2022-12-29T04:17:51;1.40;;;0.77;;
16254;SDS011;8235;52.198;9.904;2022-12-29T04:20:17;1.50;;;0.80;;
16254;SDS011;8235;52.198;9.904;2022-12-29T04:23:03;2.23;;;1.17;;
16254;SDS011;8235;52.198;9.904;2022-12-29T04:25:30;1.47;;;0.60;;
16254;SDS011;8235;52.198;9.904;2022-12-29T04:27:57;0.90;;;0.60;;
16254;SDS011;8235;52.198;9.904;2022-12-29T04:30:24;0.93;;;0.70;;
16254;SDS011;8235;52.198;9.904;2022-12-29T04:32:51;1.20;;;0.60;;
16254;SDS011;8235;52.198;9.904;2022-12-29T04:35:17;2.50;;;0.60;;
16254;SDS011;8235;52.198;9.904;2022-12-29T04:37:44;0.60;;;0.50;;
16254;SDS011;8235;52.198;9.904;2022-12-29T04:40:12;2.77;;;0.70;;
16254;SDS011;8235;52.198;9.904;2022-12-29T04:42:38;1.53;;;0.80;;
16254;SDS011;8235;52.198;9.904;2022-12-29T04:45:05;1.27;;;0.40;;
16254;SDS011;8235;52.198;9.904;2022-12-29T04:47:32;0.47;;;0.40;;
16254;SDS011;8235;52.198;9.904;2022-12-29T04:49:59;1.03;;;0.40;;
16254;SDS011;8235;52.198;9.904;2022-12-29T04:52:25;2.63;;;1.47;;
16254;SDS011;8235;52.198;9.904;2022-12-29T04:54:52;0.50;;;0.50;;
16254;SDS011;8235;52.198;9.904;2022-12-29T04:57:20;1.70;;;0.90;;
16254;SDS011;8235;52.198;9.904;2022-12-29T04:59:46;2.07;;;1.13;;
16254;SDS011;8235;52.198;9.904;2022-12-29T05:02:12;1.03;;;0.60;;
16254;SDS011;8235;52.198;9.904;2022-12-29T05:04:39;1.53;;;0.70;;
16254;SDS011;8235;52.198;9.904;2022-12-29T05:07:05;1.57;;;0.67;;
16254;SDS011;8235;52.198;9.904;2022-12-29T05:09:32;1.93;;;1.13;;
16254;SDS011;8235;52.198;9.904;2022-12-29T05:11:58;3.00;;;1.57;;
16254;SDS011;8235;52.198;9.904;2022-12-29T05:14:26;2.77;;;1.00;;
16254;SDS011;8235;52.198;9.904;2022-12-29T05:16:53;0.87;;;0.40;;
16254;SDS011;8235;52.198;9.904;2022-12-29T05:19:19;1.67;;;0.80;;
16254;SDS011;8235;52.198;9.904;2022-12-29T05:21:46;0.70;;;0.60;;
16254;SDS011;8235;52.198;9.904;2022-12-29T05:24:12;2.37;;;1.13;;
16254;SDS011;8235;52.198;9.904;2022-12-29T05:26:40;0.93;;;0.43;;
16254;SDS011;8235;52.198;9.904;2022-12-29T05:29:06;1.10;;;0.60;;
16254;SDS011;8235;52.198;9.904;2022-12-29T05:31:35;1.33;;;0.87;;
16254;SDS011;8235;52.198;9.904;2022-12-29T05:34:01;1.60;;;0.80;;
16254;SDS011;8235;52.198;9.904;2022-12-29T05:36:27;0.83;;;0.60;;
16254;SDS011;8235;52.198;9.904;2022-12-29T05:38:54;0.70;;;0.60;;
16254;SDS011;8235;52.198;9.904;2022-12-29T05:41:20;1.60;;;0.90;;
16254;SDS011;8235;52.198;9.904;2022-12-29T05:43:47;0.40;;;0.30;;
16254;SDS011;8235;52.198;9.904;2022-12-29T05:46:13;0.40;;;0.40;;
16254;SDS011;8235;52.198;9.904;2022-12-29T05:48:41;1.07;;;0.50;;
16254;SDS011;8235;52.198;9.904;2022-12-29T05:51:07;0.80;;;0.50;;
16254;SDS011;8235;52.198;9.904;2022-12-29T05:53:34;1.97;;;1.30;;
16254;SDS011;8235;52.198;9.904;2022-12-29T05:56:00;0.73;;;0.73;;
16254;SDS011;8235;52.198;9.904;2022-12-29T05:58:27;0.90;;;0.60;;
16254;SDS011;8235;52.198;9.904;2022-12-29T06:00:53;0.90;;;0.77;;
16254;SDS011;8235;52.198;9.904;2022-12-29T06:03:20;1.93;;;0.60;;
16254;SDS011;8235;52.198;9.904;2022-12-29T06:05:47;0.60;;;0.50;;
16254;SDS011;8235;52.198;9.904;2022-12-29T06:08:14;1.10;;;0.40;;
16254;SDS011;8235;52.198;9.904;2022-12-29T06:10:40;1.57;;;0.30;;
16254;SDS011;8235;52.198;9.904;2022-12-29T06:13:07;0.50;;;0.33;;
16254;SDS011;8235;52.198;9.904;2022-12-29T06:15:34;0.83;;;0.40;;
16254;SDS011;8235;52.198;9.904;2022-12-29T06:18:00;0.40;;;0.30;;
16254;SDS011;8235;52.198;9.904;2022-12-29T06:20:27;0.40;;;0.30;;
16254;SDS011;8235;52.198;9.904;2022-12-29T06:22:54;1.13;;;0.53;;
16254;SDS011;8235;52.198;9.904;2022-12-29T06:25:21;1.27;;;0.77;;
16254;SDS011;8235;52.198;9.904;2022-12-29T06:27:47;1.30;;;0.63;;
16254;SDS011;8235;52.198;9.904;2022-12-29T06:30:14;0.80;;;0.50;;
16254;SDS011;8235;52.198;9.904;2022-12-29T06:32:41;0.67;;;0.40;;
16254;SDS011;8235;52.198;9.904;2022-12-29T06:35:08;0.67;;;0.30;;
16254;SDS011;8235;52.198;9.904;2022-12-29T06:37:35;0.83;;;0.30;;
16254;SDS011;8235;52.198;9.904;2022-12-29T06:40:03;1.47;;;0.50;;
16254;SDS011;8235;52.198;9.904;2022-12-29T06:42:31;2.37;;;1.20;;
16254;SDS011;8235;52.198;9.904;2022-12-29T06:44:57;0.70;;;0.50;;
16254;SDS011;8235;52.198;9.904;2022-12-29T06:47:25;0.60;;;0.50;;
16254;SDS011;8235;52.198;9.904;2022-12-29T06:49:52;0.47;;;0.47;;
16254;SDS011;8235;52.198;9.904;2022-12-29T06:52:18;2.00;;;0.40;;
16254;SDS011;8235;52.198;9.904;2022-12-29T06:54:45;1.33;;;0.20;;
16254;SDS011;8235;52.198;9.904;2022-12-29T06:57:12;0.27;;;0.27;;
16254;SDS011;8235;52.198;9.904;2022-12-29T06:59:39;0.20;;;0.20;;
16254;SDS011;8235;52.198;9.904;2022-12-29T07:02:05;0.20;;;0.20;;
16254;SDS011;8235;52.198;9.904;2022-12-29T07:04:32;0.30;;;0.10;;
16254;SDS011;8235;52.198;9.904;2022-12-29T07:06:58;0.40;;;0.20;;
16254;SDS011;8235;52.198;9.904;2022-12-29T07:09:25;0.20;;;0.10;;
16254;SDS011;8235;52.198;9.904;2022-12-29T07:11:51;0.30;;;0.13;;
16254;SDS011;8235;52.198;9.904;2022-12-29T07:14:19;0.40;;;0.40;;
16254;SDS011;8235;52.198;9.904;2022-12-29T07:16:45;0.70;;;0.20;;
16254;SDS011;8235;52.198;9.904;2022-12-29T07:19:12;0.20;;;0.20;;
16254;SDS011;8235;52.198;9.904;2022-12-29T07:21:38;0.50;;;0.50;;
16254;SDS011;8235;52.198;9.904;2022-12-29T07:24:05;1.17;;;0.30;;
16254;SDS011;8235;52.198;9.904;2022-12-29T07:26:32;0.43;;;0.30;;
16254;SDS011;8235;52.198;9.904;2022-12-29T07:28:59;0.30;;;0.30;;
16254;SDS011;8235;52.198;9.904;2022-12-29T07:31:27;0.40;;;0.20;;
16254;SDS011;8235;52.198;9.904;2022-12-29T07:33:54;0.30;;;0.20;;
16254;SDS011;8235;52.198;9.904;2022-12-29T07:36:20;0.10;;;0.10;;
16254;SDS011;8235;52.198;9.904;2022-12-29T07:38:47;0.40;;;0.30;;
16254;SDS011;8235;52.198;9.904;2022-12-29T07:41:13;0.40;;;0.23;;
16254;SDS011;8235;52.198;9.904;2022-12-29T07:43:40;0.30;;;0.20;;
16254;SDS011;8235;52.198;9.904;2022-12-29T07:46:06;0.20;;;0.20;;
16254;SDS011;8235;52.198;9.904;2022-12-29T07:48:35;0.20;;;0.10;;
16254;SDS011;8235;52.198;9.904;2022-12-29T07:51:01;0.73;;;0.40;;
16254;SDS011;8235;52.198;9.904;2022-12-29T07:53:28;0.50;;;0.30;;
16254;SDS011;8235;52.198;9.904;2022-12-29T07:55:55;0.20;;;0.20;;
16254;SDS011;8235;52.198;9.904;2022-12-29T07:58:21;0.40;;;0.20;;
16254;SDS011;8235;52.198;9.904;2022-12-29T08:00:52;0.50;;;0.20;;
16254;SDS011;8235;52.198;9.904;2022-12-29T08:03:19;0.50;;;0.30;;
16254;SDS011;8235;52.198;9.904;2022-12-29T08:05:47;0.17;;;0.17;;
16254;SDS011;8235;52.198;9.904;2022-12-29T08:08:13;0.70;;;0.20;;
16254;SDS011;8235;52.198;9.904;2022-12-29T08:10:40;0.30;;;0.30;;
16254;SDS011;8235;52.198;9.904;2022-12-29T08:13:06;0.97;;;0.20;;
16254;SDS011;8235;52.198;9.904;2022-12-29T08:15:32;0.43;;;0.37;;
16254;SDS011;8235;52.198;9.904;2022-12-29T08:17:59;0.77;;;0.40;;
16254;SDS011;8235;52.198;9.904;2022-12-29T08:20:25;0.20;;;0.20;;
16254;SDS011;8235;52.198;9.904;2022-12-29T08:22:53;0.67;;;0.30;;
16254;SDS011;8235;52.198;9.904;2022-12-29T08:25:20;0.20;;;0.20;;
16254;SDS011;8235;52.198;9.904;2022-12-29T08:27:47;0.50;;;0.40;;
16254;SDS011;8235;52.198;9.904;2022-12-29T08:30:13;0.70;;;0.50;;
16254;SDS011;8235;52.198;9.904;2022-12-29T08:32:40;0.40;;;0.40;;
16254;SDS011;8235;52.198;9.904;2022-12-29T08:35:07;0.50;;;0.40;;
16254;SDS011;8235;52.198;9.904;2022-12-29T08:37:34;1.37;;;0.43;;
16254;SDS011;8235;52.198;9.904;2022-12-29T08:40:02;0.30;;;0.30;;
16254;SDS011;8235;52.198;9.904;2022-12-29T08:42:29;0.67;;;0.37;;
16254;SDS011;8235;52.198;9.904;2022-12-29T08:44:56;0.30;;;0.30;;
16254;SDS011;8235;52.198;9.904;2022-12-29T08:47:22;0.70;;;0.37;;
16254;SDS011;8235;52.198;9.904;2022-12-29T08:49:49;0.77;;;0.43;;
16254;SDS011;8235;52.198;9.904;2022-12-29T08:52:15;1.83;;;0.73;;
16254;SDS011;8235;52.198;9.904;2022-12-29T08:54:42;1.17;;;0.43;;
16254;SDS011;8235;52.198;9.904;2022-12-29T08:57:10;2.17;;;0.60;;
16254;SDS011;8235;52.198;9.904;2022-12-29T08:59:36;3.07;;;0.70;;
16254;SDS011;8235;52.198;9.904;2022-12-29T09:02:03;2.30;;;0.60;;
16254;SDS011;8235;52.198;9.904;2022-12-29T09:04:29;0.90;;;0.60;;
16254;SDS011;8235;52.198;9.904;2022-12-29T09:06:56;2.97;;;1.10;;
16254;SDS011;8235;52.198;9.904;2022-12-29T09:09:22;1.63;;;1.00;;
16254;SDS011;8235;52.198;9.904;2022-12-29T09:11:48;2.63;;;0.80;;
16254;SDS011;8235;52.198;9.904;2022-12-29T09:14:16;1.40;;;0.67;;
16254;SDS011;8235;52.198;9.904;2022-12-29T09:16:43;0.63;;;0.43;;
16254;SDS011;8235;52.198;9.904;2022-12-29T09:19:27;0.47;;;0.40;;
16254;SDS011;8235;52.198;9.904;2022-12-29T09:21:53;0.70;;;0.50;;
16254;SDS011;8235;52.198;9.904;2022-12-29T09:24:20;0.50;;;0.50;;
16254;SDS011;8235;52.198;9.904;2022-12-29T09:26:46;1.27;;;0.47;;
16254;SDS011;8235;52.198;9.904;2022-12-29T09:29:12;0.70;;;0.50;;
16254;SDS011;8235;52.198;9.904;2022-12-29T09:31:40;0.87;;;0.60;;
16254;SDS011;8235;52.198;9.904;2022-12-29T09:34:07;0.70;;;0.60;;
16254;SDS011;8235;52.198;9.904;2022-12-29T09:36:33;0.80;;;0.70;;
16254;SDS011;8235;52.198;9.904;2022-12-29T09:39:00;1.77;;;0.60;;
16254;SDS011;8235;52.198;9.904;2022-12-29T09:41:28;1.93;;;1.10;;
16254;SDS011;8235;52.198;9.904;2022-12-29T09:44:03;1.60;;;1.10;;
16254;SDS011;8235;52.198;9.904;2022-12-29T09:46:34;1.43;;;0.93;;
16254;SDS011;8235;52.198;9.904;2022-12-29T09:49:08;1.07;;;0.90;;
16254;SDS011;8235;52.198;9.904;2022-12-29T09:51:43;0.70;;;0.70;;
16254;SDS011;8235;52.198;9.904;2022-12-29T09:54:19;2.03;;;0.97;;
16254;SDS011;8235;52.198;9.904;2022-12-29T09:56:50;1.50;;;0.80;;
16254;SDS011;8235;52.198;9.904;2022-12-29T09:59:19;1.50;;;1.30;;
16254;SDS011;8235;52.198;9.904;2022-12-29T10:01:51;0.57;;;0.53;;
16254;SDS011;8235;52.198;9.904;2022-12-29T10:04:24;1.00;;;0.70;;
16254;SDS011;8235;52.198;9.904;2022-12-29T10:06:54;1.20;;;0.80;;
16254;SDS011;8235;52.198;9.904;2022-12-29T10:09:30;1.47;;;0.80;;
16254;SDS011;8235;52.198;9.904;2022-12-29T10:12:08;2.00;;;0.80;;
16254;SDS011;8235;52.198;9.904;2022-12-29T10:14:54;0.50;;;0.40;;
16254;SDS011;8235;52.198;9.904;2022-12-29T10:17:31;1.77;;;0.50;;
16254;SDS011;8235;52.198;9.904;2022-12-29T10:20:14;1.47;;;0.57;;
16254;SDS011;8235;52.198;9.904;2022-12-29T10:22:55;0.70;;;0.40;;
16254;SDS011;8235;52.198;9.904;2022-12-29T10:25:31;2.03;;;0.57;;
16254;SDS011;8235;52.198;9.904;2022-12-29T10:28:04;1.70;;;0.60;;
16254;SDS011;8235;52.198;9.904;2022-12-29T10:30:37;1.47;;;0.50;;
16254;SDS011;8235;52.198;9.904;2022-12-29T10:33:06;1.67;;;0.60;;
16254;SDS011;8235;52.198;9.904;2022-12-29T10:35:39;1.00;;;0.50;;
16254;SDS011;8235;52.198;9.904;2022-12-29T10:38:11;1.57;;;0.60;;
16254;SDS011;8235;52.198;9.904;2022-12-29T10:40:42;1.63;;;0.50;;
16254;SDS011;8235;52.198;9.904;2022-12-29T10:43:17;2.30;;;0.50;;
16254;SDS011;8235;52.198;9.904;2022-12-29T10:45:50;1.57;;;0.50;;
16254;SDS011;8235;52.198;9.904;2022-12-29T10:48:19;0.80;;;0.57;;
16254;SDS011;8235;52.198;9.904;2022-12-29T10:50:49;1.20;;;0.83;;
16254;SDS011;8235;52.198;9.904;2022-12-29T10:53:20;1.10;;;0.70;;
16254;SDS011;8235;52.198;9.904;2022-12-29T10:55:51;1.53;;;0.90;;
16254;SDS011;8235;52.198;9.904;2022-12-29T10:58:18;3.10;;;0.97;;
16254;SDS011;8235;52.198;9.904;2022-12-29T11:00:48;1.93;;;0.73;;
16254;SDS011;8235;52.198;9.904;2022-12-29T11:03:29;1.60;;;1.00;;
16254;SDS011;8235;52.198;9.904;2022-12-29T11:06:12;2.60;;;0.60;;
16254;SDS011;8235;52.198;9.904;2022-12-29T11:08:45;3.43;;;0.97;;
16254;SDS011;8235;52.198;9.904;2022-12-29T11:11:21;1.57;;;0.60;;
16254;SDS011;8235;52.198;9.904;2022-12-29T11:13:55;2.60;;;0.97;;
16254;SDS011;8235;52.198;9.904;2022-12-29T11:16:27;2.13;;;0.50;;
16254;SDS011;8235;52.198;9.904;2022-12-29T11:18:55;1.13;;;0.60;;
16254;SDS011;8235;52.198;9.904;2022-12-29T11:21:30;2.37;;;0.50;;
16254;SDS011;8235;52.198;9.904;2022-12-29T11:23:59;2.40;;;0.60;;
16254;SDS011;8235;52.198;9.904;2022-12-29T11:26:28;2.20;;;0.50;;
16254;SDS011;8235;52.198;9.904;2022-12-29T11:32:10;4.10;;;1.00;;
16254;SDS011;8235;52.198;9.904;2022-12-29T11:34:38;1.47;;;0.47;;
16254;SDS011;8235;52.198;9.904;2022-12-29T11:37:06;4.30;;;0.80;;
16254;SDS011;8235;52.198;9.904;2022-12-29T11:39:39;2.00;;;0.60;;
16254;SDS011;8235;52.198;9.904;2022-12-29T11:42:13;5.37;;;2.87;;
16254;SDS011;8235;52.198;9.904;2022-12-29T11:44:43;5.97;;;2.57;;
16254;SDS011;8235;52.198;9.904;2022-12-29T11:47:19;4.73;;;2.00;;
16254;SDS011;8235;52.198;9.904;2022-12-29T11:49:52;3.67;;;0.80;;
16254;SDS011;8235;52.198;9.904;2022-12-29T11:52:23;3.67;;;0.83;;
16254;SDS011;8235;52.198;9.904;2022-12-29T11:54:52;1.53;;;0.60;;
16254;SDS011;8235;52.198;9.904;2022-12-29T11:57:20;2.67;;;0.80;;
16254;SDS011;8235;52.198;9.904;2022-12-29T11:59:50;1.47;;;0.70;;
16254;SDS011;8235;52.198;9.904;2022-12-29T12:02:31;3.40;;;1.10;;
16254;SDS011;8235;52.198;9.904;2022-12-29T12:05:18;1.50;;;0.80;;
16254;SDS011;8235;52.198;9.904;2022-12-29T12:07:51;3.13;;;1.17;;
16254;SDS011;8235;52.198;9.904;2022-12-29T12:10:23;2.57;;;1.10;;
16254;SDS011;8235;52.198;9.904;2022-12-29T12:12:55;3.23;;;0.80;;
16254;SDS011;8235;52.198;9.904;2022-12-29T12:15:27;4.23;;;0.80;;
16254;SDS011;8235;52.198;9.904;2022-12-29T12:17:57;3.40;;;0.80;;
16254;SDS011;8235;52.198;9.904;2022-12-29T12:20:32;3.00;;;1.10;;
16254;SDS011;8235;52.198;9.904;2022-12-29T12:23:12;5.23;;;1.40;;
16254;SDS011;8235;52.198;9.904;2022-12-29T12:25:48;2.47;;;0.97;;
16254;SDS011;8235;52.198;9.904;2022-12-29T12:28:21;5.63;;;2.50;;
16254;SDS011;8235;52.198;9.904;2022-12-29T12:30:56;2.60;;;1.83;;
16254;SDS011;8235;52.198;9.904;2022-12-29T12:33:28;4.20;;;2.00;;
16254;SDS011;8235;52.198;9.904;2022-12-29T12:36:06;3.73;;;1.93;;
16254;SDS011;8235;52.198;9.904;2022-12-29T12:38:46;5.93;;;1.70;;
16254;SDS011;8235;52.198;9.904;2022-12-29T12:41:22;2.67;;;1.10;;
16254;SDS011;8235;52.198;9.904;2022-12-29T12:43:57;2.97;;;1.67;;
16254;SDS011;8235;52.198;9.904;2022-12-29T12:46:31;2.17;;;0.70;;
16254;SDS011;8235;52.198;9.904;2022-12-29T12:49:17;0.70;;;0.50;;
16254;SDS011;8235;52.198;9.904;2022-12-29T12:51:58;3.17;;;1.43;;
16254;SDS011;8235;52.198;9.904;2022-12-29T12:54:41;3.97;;;0.70;;
16254;SDS011;8235;52.198;9.904;2022-12-29T12:57:22;3.33;;;1.80;;
16254;SDS011;8235;52.198;9.904;2022-12-29T13:00:00;3.23;;;1.40;;
16254;SDS011;8235;52.198;9.904;2022-12-29T13:02:36;3.10;;;1.00;;
16254;SDS011;8235;52.198;9.904;2022-12-29T13:05:21;3.17;;;1.30;;
16254;SDS011;8235;52.198;9.904;2022-12-29T13:07:59;1.80;;;0.97;;
16254;SDS011;8235;52.198;9.904;2022-12-29T13:10:42;2.23;;;0.90;;
16254;SDS011;8235;52.198;9.904;2022-12-29T13:16:20;5.60;;;1.97;;
16254;SDS011;8235;52.198;9.904;2022-12-29T13:18:56;1.90;;;1.33;;
16254;SDS011;8235;52.198;9.904;2022-12-29T13:21:31;2.30;;;1.50;;
16254;SDS011;8235;52.198;9.904;2022-12-29T13:24:05;3.90;;;1.93;;
16254;SDS011;8235;52.198;9.904;2022-12-29T13:26:43;4.73;;;1.20;;
16254;SDS011;8235;52.198;9.904;2022-12-29T13:29:15;1.93;;;0.93;;
16254;SDS011;8235;52.198;9.904;2022-12-29T13:31:48;2.30;;;0.90;;
16254;SDS011;8235;52.198;9.904;2022-12-29T13:34:24;1.53;;;1.30;;
16254;SDS011;8235;52.198;9.904;2022-12-29T13:36:59;2.73;;;1.00;;
16254;SDS011;8235;52.198;9.904;2022-12-29T13:39:30;3.47;;;1.30;;
16254;SDS011;8235;52.198;9.904;2022-12-29T13:42:01;3.47;;;1.20;;
16254;SDS011;8235;52.198;9.904;2022-12-29T13:44:30;2.50;;;0.90;;
16254;SDS011;8235;52.198;9.904;2022-12-29T13:47:00;2.47;;;1.37;;
16254;SDS011;8235;52.198;9.904;2022-12-29T13:49:32;3.53;;;1.60;;
16254;SDS011;8235;52.198;9.904;2022-12-29T13:52:03;4.27;;;1.30;;
16254;SDS011;8235;52.198;9.904;2022-12-29T13:54:39;2.30;;;1.20;;
16254;SDS011;8235;52.198;9.904;2022-12-29T13:57:14;1.73;;;0.93;;
16254;SDS011;8235;52.198;9.904;2022-12-29T13:59:54;6.70;;;1.43;;
16254;SDS011;8235;52.198;9.904;2022-12-29T14:02:26;1.77;;;1.50;;
16254;SDS011;8235;52.198;9.904;2022-12-29T14:04:59;7.03;;;1.97;;
16254;SDS011;8235;52.198;9.904;2022-12-29T14:07:26;3.50;;;1.50;;
16254;SDS011;8235;52.198;9.904;2022-12-29T14:09:54;4.33;;;1.93;;
16254;SDS011;8235;52.198;9.904;2022-12-29T14:12:29;8.07;;;6.07;;
16254;SDS011;8235;52.198;9.904;2022-12-29T14:15:02;5.67;;;1.50;;
16254;SDS011;8235;52.198;9.904;2022-12-29T14:17:32;3.00;;;1.10;;
16254;SDS011;8235;52.198;9.904;2022-12-29T14:19:58;2.60;;;1.00;;
16254;SDS011;8235;52.198;9.904;2022-12-29T14:22:26;3.90;;;1.40;;
16254;SDS011;8235;52.198;9.904;2022-12-29T14:24:53;4.10;;;1.27;;
16254;SDS011;8235;52.198;9.904;2022-12-29T14:33:25;5.83;;;1.17;;
16254;SDS011;8235;52.198;9.904;2022-12-29T14:35:54;4.93;;;1.33;;
16254;SDS011;8235;52.198;9.904;2022-12-29T14:38:25;4.23;;;2.03;;
16254;SDS011;8235;52.198;9.904;2022-12-29T14:44:00;4.17;;;1.40;;
16254;SDS011;8235;52.198;9.904;2022-12-29T14:46:42;3.73;;;1.20;;
16254;SDS011;8235;52.198;9.904;2022-12-29T14:49:14;2.13;;;0.90;;
16254;SDS011;8235;52.198;9.904;2022-12-29T14:51:43;5.60;;;1.30;;
16254;SDS011;8235;52.198;9.904;2022-12-29T14:57:17;2.60;;;1.00;;
16254;SDS011;8235;52.198;9.904;2022-12-29T14:59:49;3.43;;;1.33;;
16254;SDS011;8235;52.198;9.904;2022-12-29T15:02:21;4.47;;;2.53;;
16254;SDS011;8235;52.198;9.904;2022-12-29T15:04:50;4.40;;;1.77;;
16254;SDS011;8235;52.198;9.904;2022-12-29T15:07:19;5.03;;;1.53;;
16254;SDS011;8235;52.198;9.904;2022-12-29T15:09:46;6.70;;;4.00;;
16254;SDS011;8235;52.198;9.904;2022-12-29T15:12:20;4.73;;;1.20;;
16254;SDS011;8235;52.198;9.904;2022-12-29T15:14:56;4.63;;;1.20;;
16254;SDS011;8235;52.198;9.904;2022-12-29T15:17:25;4.73;;;0.93;;
16254;SDS011;8235;52.198;9.904;2022-12-29T15:19:53;3.63;;;0.90;;
16254;SDS011;8235;52.198;9.904;2022-12-29T15:22:20;4.13;;;1.10;;
16254;SDS011;8235;52.198;9.904;2022-12-29T15:24:49;3.30;;;1.07;;
16254;SDS011;8235;52.198;9.904;2022-12-29T15:27:18;2.40;;;0.97;;
16254;SDS011;8235;52.198;9.904;2022-12-29T15:29:46;2.13;;;1.13;;
16254;SDS011;8235;52.198;9.904;2022-12-29T15:32:19;3.13;;;0.80;;
16254;SDS011;8235;52.198;9.904;2022-12-29T15:34:48;2.60;;;1.03;;
16254;SDS011;8235;52.198;9.904;2022-12-29T15:37:17;3.03;;;1.00;;
16254;SDS011;8235;52.198;9.904;2022-12-29T15:39:45;1.93;;;1.20;;
16254;SDS011;8235;52.198;9.904;2022-12-29T15:42:16;2.40;;;1.50;;
16254;SDS011;8235;52.198;9.904;2022-12-29T15:44:52;4.50;;;1.40;;